Time;durP1;ratioP1;P1;durP2;ratioP2;P2;SDS_P1;SDS_P2;PMS_P1;PMS_P2;Temp;Humidity;BMP_temperature;BMP_pressure;BME280_temperature;BME280_humidity;BME280_pressure;Samples;Min_cycle;Max_cycle;Signal;HPM_P1;HPM_P2
2021/06/20 00:00:13;;;;;;;9.18;6.10;;;;;;;23.89;54.86;98364.56;5020160;28;20030;-69
2021/06/20 00:02:39;;;;;;;8.75;6.30;;;;;;;23.91;54.55;98347.38;5017787;28;20033;-70
2021/06/20 00:05:08;;;;;;;11.40;6.40;;;;;;;23.84;54.95;98351.19;5020242;28;20057;-70
2021/06/20 00:07:34;;;;;;;10.70;6.85;;;;;;;23.78;54.93;98355.59;5020043;28;20130;-71
2021/06/20 00:10:01;;;;;;;8.27;6.45;;;;;;;23.64;54.97;98348.94;5034016;28;20508;-69
2021/06/20 00:12:26;;;;;;;9.23;6.93;;;;;;;23.37;56.14;98346.84;5020320;28;20680;-70
2021/06/20 00:14:52;;;;;;;8.85;6.72;;;;;;;23.44;56.45;98362.59;5029034;28;20037;-68
2021/06/20 00:17:17;;;;;;;9.32;6.82;;;;;;;23.46;56.01;98350.72;5019935;28;20044;-68
2021/06/20 00:19:43;;;;;;;10.10;7.18;;;;;;;23.57;56.14;98359.69;5019282;28;20476;-70
2021/06/20 00:22:09;;;;;;;9.48;7.28;;;;;;;23.63;55.98;98357.94;5024572;28;20052;-70
2021/06/20 00:24:34;;;;;;;9.43;7.00;;;;;;;23.50;56.57;98341.25;5022104;28;20483;-71
2021/06/20 00:26:59;;;;;;;10.63;7.28;;;;;;;23.51;56.40;98340.22;5021989;28;20483;-68
2021/06/20 00:29:25;;;;;;;11.23;7.20;;;;;;;23.41;56.76;98329.41;5021627;28;20176;-70
2021/06/20 00:31:50;;;;;;;10.77;8.00;;;;;;;23.35;56.89;98317.09;5022177;28;20456;-70
2021/06/20 00:34:16;;;;;;;9.73;7.35;;;;;;;23.44;56.65;98297.09;5018657;28;20076;-68
2021/06/20 00:36:41;;;;;;;9.32;7.15;;;;;;;23.53;56.38;98293.03;5006999;28;20512;-70
2021/06/20 00:39:06;;;;;;;9.60;7.50;;;;;;;23.34;56.74;98262.41;5018116;28;20121;-70
2021/06/20 00:41:32;;;;;;;9.68;7.38;;;;;;;23.50;56.77;98292.69;5022828;28;20408;-70
2021/06/20 00:44:01;;;;;;;12.25;7.25;;;;;;;23.40;57.10;98293.28;5031042;28;20025;-66
2021/06/20 00:46:27;;;;;;;11.05;7.68;;;;;;;23.45;57.18;98285.44;5015612;28;20057;-70
2021/06/20 00:48:52;;;;;;;11.50;7.68;;;;;;;23.31;57.25;98290.22;5020238;28;20072;-69
2021/06/20 00:51:18;;;;;;;8.98;7.53;;;;;;;23.12;57.91;98283.47;5033470;28;20933;-70
2021/06/20 00:53:44;;;;;;;12.20;7.50;;;;;;;22.75;59.60;98286.38;5019824;28;20075;-70
2021/06/20 00:56:11;;;;;;;11.23;7.70;;;;;;;22.77;60.20;98292.25;5021590;28;20045;-70
2021/06/20 00:58:37;;;;;;;11.68;7.97;;;;;;;22.89;60.52;98293.03;5035898;28;20128;-69
2021/06/20 01:01:02;;;;;;;10.70;7.75;;;;;;;23.08;59.71;98304.31;5025161;28;20031;-70
2021/06/20 01:03:28;;;;;;;12.98;7.97;;;;;;;22.97;59.31;98268.00;5001902;28;20207;-69
2021/06/20 01:05:53;;;;;;;10.80;7.47;;;;;;;23.25;59.29;98304.41;5007835;28;20179;-70
2021/06/20 01:08:18;;;;;;;9.98;7.70;;;;;;;23.33;58.83;98292.66;5009644;28;20034;-69
2021/06/20 01:10:44;;;;;;;11.55;8.25;;;;;;;23.12;60.13;98283.47;5031576;28;20404;-70
2021/06/20 01:13:12;;;;;;;11.90;8.00;;;;;;;23.00;60.74;98284.25;4999474;28;20030;-70
2021/06/20 01:15:37;;;;;;;9.57;8.15;;;;;;;23.02;60.77;98279.53;5016620;28;20033;-71
2021/06/20 01:18:04;;;;;;;10.52;8.32;;;;;;;23.05;60.97;98278.28;5038338;28;20389;-70
2021/06/20 01:20:29;;;;;;;11.90;8.43;;;;;;;23.18;60.70;98283.34;5002476;28;20029;-71
2021/06/20 01:22:55;;;;;;;12.48;8.57;;;;;;;23.06;60.53;98247.28;5018161;28;20032;-71
2021/06/20 01:25:22;;;;;;;11.00;7.97;;;;;;;23.25;60.56;98269.13;4999993;28;20029;-70
2021/06/20 01:27:58;;;;;;;13.68;8.13;;;;;;;23.23;60.44;98254.25;5004682;28;20056;-69
2021/06/20 01:30:29;;;;;;;10.52;8.80;;;;;;;23.33;60.51;98258.16;5018581;28;20041;-70
2021/06/20 01:32:56;;;;;;;9.85;7.93;;;;;;;23.20;60.69;98256.56;5023601;28;20100;-70
2021/06/20 01:35:22;;;;;;;11.93;8.55;;;;;;;23.10;60.03;98285.53;5019066;28;20033;-70
2021/06/20 01:37:47;;;;;;;12.25;8.75;;;;;;;23.12;60.18;98292.22;5018310;28;20041;-70
2021/06/20 01:40:15;;;;;;;11.70;8.18;;;;;;;23.19;59.56;98300.03;5003550;28;20029;-69
2021/06/20 01:42:41;;;;;;;13.32;8.57;;;;;;;23.15;59.85;98312.16;5004316;28;20439;-70
2021/06/20 01:45:08;;;;;;;10.32;8.25;;;;;;;22.91;60.26;98316.63;5014768;28;20045;-70
2021/06/20 01:47:34;;;;;;;11.70;9.00;;;;;;;22.80;60.53;98313.78;5035156;28;20033;-69
2021/06/20 01:50:02;;;;;;;9.73;8.35;;;;;;;22.80;60.08;98305.03;5032983;28;20029;-70
2021/06/20 01:52:28;;;;;;;10.02;8.52;;;;;;;22.90;60.09;98307.09;5006339;28;20098;-70
2021/06/20 01:54:54;;;;;;;10.65;8.27;;;;;;;22.88;59.94;98291.41;5003488;28;20242;-68
2021/06/20 01:57:30;;;;;;;10.70;8.50;;;;;;;22.93;59.75;98285.44;5016005;28;20013;-69
2021/06/20 01:59:57;;;;;;;11.25;8.77;;;;;;;22.83;60.08;98286.00;5020823;28;20547;-70
2021/06/20 02:02:24;;;;;;;11.10;8.23;;;;;;;22.74;60.11;98258.25;5039022;28;20546;-69
2021/06/20 02:04:51;;;;;;;10.63;8.55;;;;;;;22.95;60.03;98284.16;5006964;28;20132;-71
2021/06/20 02:07:16;;;;;;;11.50;8.60;;;;;;;23.01;59.90;98288.50;5022031;28;20041;-69
2021/06/20 02:09:43;;;;;;;13.75;8.45;;;;;;;22.95;60.03;98283.34;5020164;28;20033;-69
2021/06/20 02:12:09;;;;;;;11.77;8.88;;;;;;;22.97;60.31;98291.88;5011525;28;20033;-69
2021/06/20 02:14:36;;;;;;;12.32;8.38;;;;;;;22.89;60.75;98311.59;5022298;28;20406;-70
2021/06/20 02:17:22;;;;;;;15.65;8.10;;;;;;;22.92;60.69;98295.22;5007395;28;20022;-70
2021/06/20 02:19:49;;;;;;;10.75;8.55;;;;;;;22.95;60.17;98294.75;5024861;28;21867;-70
2021/06/20 02:22:14;;;;;;;11.65;8.57;;;;;;;22.85;60.21;98294.53;5040359;28;20021;-70
2021/06/20 02:24:39;;;;;;;16.23;8.90;;;;;;;22.56;61.34;98296.25;5015995;28;20059;-70
2021/06/20 02:27:06;;;;;;;11.48;9.05;;;;;;;22.62;60.96;98303.31;5018929;28;20761;-70
2021/06/20 02:29:32;;;;;;;11.63;8.85;;;;;;;22.53;61.03;98300.19;5016012;28;20198;-70
2021/06/20 02:31:57;;;;;;;11.13;8.82;;;;;;;22.51;61.30;98294.31;5037556;28;20025;-70
2021/06/20 02:34:23;;;;;;;12.63;8.57;;;;;;;22.29;61.83;98262.28;5024270;28;20030;-68
2021/06/20 02:36:48;;;;;;;11.18;9.10;;;;;;;22.53;61.71;98302.03;5020795;28;20030;-71
2021/06/20 02:39:14;;;;;;;13.45;9.30;;;;;;;22.57;61.78;98308.47;5025260;28;20034;-70
2021/06/20 02:41:39;;;;;;;10.52;9.43;;;;;;;22.62;61.62;98311.25;5019486;28;20025;-68
2021/06/20 02:44:05;;;;;;;11.82;8.85;;;;;;;22.70;61.55;98294.19;5038848;28;20151;-70
2021/06/20 02:46:30;;;;;;;11.98;8.75;;;;;;;22.61;61.79;98283.13;5022090;28;20033;-70
2021/06/20 02:48:56;;;;;;;13.05;8.65;;;;;;;22.65;61.68;98293.06;5036369;28;20827;-70
2021/06/20 02:51:21;;;;;;;13.20;9.38;;;;;;;22.73;61.80;98309.66;5023908;28;20036;-69
2021/06/20 02:53:46;;;;;;;15.02;9.40;;;;;;;22.52;62.24;98309.16;5037353;28;20025;-70
2021/06/20 02:56:12;;;;;;;12.05;9.23;;;;;;;22.50;62.69;98313.88;5021943;28;20521;-69
2021/06/20 02:58:37;;;;;;;11.77;9.55;;;;;;;22.47;62.49;98303.75;5020458;28;20299;-69
2021/06/20 03:01:03;;;;;;;11.43;9.32;;;;;;;22.55;62.52;98302.59;5037361;28;20029;-70
2021/06/20 03:03:28;;;;;;;11.52;9.63;;;;;;;22.21;62.82;98251.97;5023423;28;20427;-69
2021/06/20 03:05:54;;;;;;;12.10;9.93;;;;;;;22.39;62.50;98289.00;5018612;28;20029;-69
2021/06/20 03:08:19;;;;;;;12.05;9.57;;;;;;;22.48;62.43;98301.91;5019804;28;20088;-69
2021/06/20 03:10:44;;;;;;;12.98;9.60;;;;;;;22.36;62.25;98273.56;5033213;28;20030;-70
2021/06/20 03:13:10;;;;;;;11.50;9.55;;;;;;;22.42;62.51;98298.34;5014553;28;20562;-70
2021/06/20 03:15:39;;;;;;;11.25;9.35;;;;;;;22.50;62.33;98290.03;5021848;28;20424;-71
2021/06/20 03:18:05;;;;;;;10.80;9.60;;;;;;;22.45;62.40;98297.84;5039039;28;20033;-68
2021/06/20 03:20:32;;;;;;;11.10;9.90;;;;;;;22.35;62.96;98295.78;5010564;28;20084;-69
2021/06/20 03:22:57;;;;;;;12.68;9.05;;;;;;;22.44;62.29;98296.25;5002390;28;20116;-70
2021/06/20 03:25:23;;;;;;;13.07;9.77;;;;;;;22.57;61.99;98298.69;5017876;28;20033;-70
2021/06/20 03:27:48;;;;;;;12.38;9.50;;;;;;;22.43;62.33;98294.63;5022103;28;20045;-69
2021/06/20 03:30:14;;;;;;;11.43;9.82;;;;;;;22.57;62.14;98313.78;5015848;28;20050;-70
2021/06/20 03:32:39;;;;;;;11.63;9.05;;;;;;;22.46;62.23;98304.78;5037744;28;20036;-70
2021/06/20 03:35:05;;;;;;;10.25;9.15;;;;;;;22.49;62.26;98311.44;5039421;28;20036;-69
2021/06/20 03:37:31;;;;;;;12.13;9.35;;;;;;;22.35;62.97;98316.97;5037123;28;20392;-71
2021/06/20 03:39:56;;;;;;;12.35;9.95;;;;;;;22.32;63.29;98320.06;5034948;28;20044;-70
2021/06/20 03:42:22;;;;;;;10.98;9.60;;;;;;;22.42;62.77;98328.28;5022609;28;20388;-68
2021/06/20 03:44:47;;;;;;;13.77;9.95;;;;;;;22.43;63.09;98343.16;5036007;28;20034;-71
2021/06/20 03:47:12;;;;;;;11.80;10.10;;;;;;;22.28;63.56;98340.09;5023398;28;20470;-69
2021/06/20 03:49:38;;;;;;;15.35;9.98;;;;;;;22.42;63.09;98338.06;5021774;28;20029;-70
2021/06/20 03:52:03;;;;;;;12.85;9.52;;;;;;;22.34;62.82;98318.03;5025331;28;20140;-70
2021/06/20 03:54:29;;;;;;;12.25;9.75;;;;;;;22.50;62.89;98335.06;5019258;28;20033;-69
2021/06/20 03:56:54;;;;;;;12.23;9.90;;;;;;;22.43;62.97;98353.75;5023526;28;20435;-70
2021/06/20 03:59:21;;;;;;;12.18;9.68;;;;;;;22.42;62.98;98362.72;5002458;28;20049;-69
2021/06/20 04:01:47;;;;;;;12.38;10.05;;;;;;;22.49;62.95;98362.63;5018332;28;20025;-70
2021/06/20 04:04:12;;;;;;;14.35;10.00;;;;;;;22.54;62.73;98353.97;5018472;28;20052;-69
2021/06/20 04:06:38;;;;;;;14.20;9.60;;;;;;;22.39;63.38;98347.25;5013271;28;20754;-70
2021/06/20 04:09:04;;;;;;;13.02;10.52;;;;;;;22.32;63.67;98359.78;5037860;28;20037;-69
2021/06/20 04:11:29;;;;;;;15.75;10.30;;;;;;;22.32;63.60;98359.78;5036513;28;21281;-70
2021/06/20 04:13:55;;;;;;;13.52;10.73;;;;;;;22.22;64.52;98362.97;4996571;28;20044;-70
2021/06/20 04:16:20;;;;;;;13.73;9.98;;;;;;;22.06;64.35;98350.38;5016779;28;20259;-70
2021/06/20 04:18:46;;;;;;;11.23;9.80;;;;;;;22.13;64.46;98363.53;5020249;28;20036;-70
2021/06/20 04:21:11;;;;;;;16.25;10.60;;;;;;;22.08;64.45;98365.00;5018051;28;20036;-70
2021/06/20 04:23:37;;;;;;;13.60;10.80;;;;;;;21.99;65.57;98374.28;5017761;28;20033;-70
2021/06/20 04:26:02;;;;;;;12.18;10.85;;;;;;;22.16;64.53;98390.38;5014224;28;20041;-70
2021/06/20 04:28:27;;;;;;;11.50;10.30;;;;;;;22.32;63.80;98385.47;5020117;28;20101;-69
2021/06/20 04:30:56;;;;;;;14.32;10.75;;;;;;;22.42;63.71;98389.19;5023335;28;20029;-70
2021/06/20 04:33:22;;;;;;;13.77;11.20;;;;;;;22.36;63.76;98374.22;5018956;28;20029;-68
2021/06/20 04:35:47;;;;;;;15.50;11.13;;;;;;;22.32;64.33;98373.03;5020075;28;20029;-70
2021/06/20 04:38:12;;;;;;;12.70;10.90;;;;;;;;;;5037646;28;20395;-69
2021/06/20 04:40:39;;;;;;;14.82;11.10;;;;;;;22.38;64.10;98358.91;5016996;28;20030;-68
2021/06/20 04:43:08;;;;;;;13.15;10.60;;;;;;;22.44;63.62;98365.13;5021557;28;20041;-71
2021/06/20 04:45:34;;;;;;;15.52;11.13;;;;;;;22.33;64.02;98350.81;5020191;28;20435;-70
2021/06/20 04:47:59;;;;;;;12.70;10.27;;;;;;;22.54;63.62;98370.66;5015513;28;20088;-70
2021/06/20 04:50:25;;;;;;;14.18;10.88;;;;;;;22.45;63.26;98342.88;5015049;28;20029;-69
2021/06/20 04:52:51;;;;;;;13.25;10.65;;;;;;;22.70;63.56;98382.44;5019408;28;20033;-70
2021/06/20 04:55:16;;;;;;;16.75;10.80;;;;;;;22.54;64.11;98373.31;5021852;28;20033;-71
2021/06/20 04:57:42;;;;;;;13.50;10.20;;;;;;;22.51;63.92;98354.44;5018881;28;20507;-71
2021/06/20 05:00:09;;;;;;;12.90;10.85;;;;;;;22.70;63.38;98363.88;5019753;28;20064;-71
2021/06/20 05:02:34;;;;;;;14.07;11.00;;;;;;;22.38;65.39;98350.13;5013155;28;20030;-70
2021/06/20 05:05:00;;;;;;;12.40;11.10;;;;;;;22.20;66.64;98356.31;5038313;28;20045;-70
2021/06/20 05:07:26;;;;;;;12.38;10.90;;;;;;;22.38;65.88;98366.84;5022047;28;20120;-71
2021/06/20 05:09:51;;;;;;;12.77;10.85;;;;;;;22.56;64.69;98362.50;5018854;28;20041;-69
2021/06/20 05:12:17;;;;;;;14.02;11.00;;;;;;;22.37;65.61;98341.38;5020107;28;20033;-71
2021/06/20 05:14:44;;;;;;;12.38;11.02;;;;;;;22.25;66.14;98335.22;5023095;28;20648;-71
2021/06/20 05:17:11;;;;;;;12.65;11.10;;;;;;;22.32;66.13;98343.09;5024621;28;20493;-71
2021/06/20 05:19:37;;;;;;;14.77;10.68;;;;;;;22.35;66.34;98334.72;5020432;28;20098;-71
2021/06/20 05:22:03;;;;;;;12.73;11.40;;;;;;;22.03;67.09;98296.06;5036305;28;20167;-70
2021/06/20 05:24:28;;;;;;;15.88;11.80;;;;;;;22.17;68.36;98335.56;5023382;28;20819;-68
2021/06/20 05:26:54;;;;;;;12.88;10.68;;;;;;;22.24;67.93;98336.28;5018643;28;20033;-69
2021/06/20 05:29:19;;;;;;;11.80;10.50;;;;;;;22.28;66.93;98334.81;5021243;28;20547;-71
2021/06/20 05:31:44;;;;;;;12.07;10.02;;;;;;;22.34;66.92;98330.44;5018427;28;20033;-72
2021/06/20 05:34:10;;;;;;;11.55;10.43;;;;;;;22.43;66.61;98321.97;5020117;28;20719;-69
2021/06/20 05:36:35;;;;;;;12.13;10.68;;;;;;;22.49;66.58;98312.28;5018637;28;20036;-70
2021/06/20 05:39:02;;;;;;;12.75;11.32;;;;;;;22.45;67.28;98308.47;5016522;28;20767;-71
2021/06/20 05:41:27;;;;;;;13.05;11.38;;;;;;;22.49;67.44;98308.81;5015423;28;20053;-70
2021/06/20 05:43:53;;;;;;;13.20;11.80;;;;;;;22.42;67.76;98304.44;5040019;28;20076;-69
2021/06/20 05:46:19;;;;;;;12.35;11.05;;;;;;;22.52;68.17;98295.91;5004678;28;20029;-70
2021/06/20 05:48:46;;;;;;;14.90;11.15;;;;;;;22.44;69.20;98296.25;5005776;28;20029;-71
2021/06/20 05:51:11;;;;;;;13.02;11.30;;;;;;;22.32;68.55;98253.06;5026319;28;20033;-70
2021/06/20 05:53:37;;;;;;;15.40;12.07;;;;;;;22.37;69.54;98277.03;5032307;28;20040;-70
2021/06/20 05:56:02;;;;;;;14.00;11.40;;;;;;;22.16;69.91;98254.50;5018817;28;20072;-70
2021/06/20 05:58:28;;;;;;;15.68;12.82;;;;;;;22.31;70.60;98270.81;5018989;28;20038;-68
2021/06/20 06:00:53;;;;;;;15.63;13.02;;;;;;;22.32;70.66;98274.25;5005866;28;20689;-70
2021/06/20 06:03:19;;;;;;;13.20;11.75;;;;;;;22.34;70.48;98254.47;5008588;28;20086;-70
2021/06/20 06:05:44;;;;;;;13.88;12.48;;;;;;;22.41;70.41;98255.13;5001501;28;20033;-73
2021/06/20 06:08:10;;;;;;;13.98;11.95;;;;;;;22.50;70.26;98254.81;5021056;28;20809;-72
2021/06/20 06:10:35;;;;;;;16.60;12.63;;;;;;;22.43;69.85;98261.03;5030149;28;20029;-70
2021/06/20 06:13:01;;;;;;;14.27;12.07;;;;;;;22.40;70.40;98261.47;5019695;28;20100;-72
2021/06/20 06:15:27;;;;;;;16.38;12.48;;;;;;;22.45;70.21;98260.78;5011704;28;20505;-70
2021/06/20 06:17:53;;;;;;;16.05;12.52;;;;;;;22.54;69.69;98266.53;5027849;28;20356;-72
2021/06/20 06:20:19;;;;;;;17.00;12.20;;;;;;;22.51;69.96;98264.38;5014893;28;20121;-73
2021/06/20 06:22:45;;;;;;;15.43;12.93;;;;;;;22.47;69.78;98266.69;5012297;28;20108;-72
2021/06/20 06:25:11;;;;;;;16.58;12.32;;;;;;;22.30;70.28;98233.94;5018074;28;20029;-71
2021/06/20 06:27:38;;;;;;;13.13;11.70;;;;;;;22.65;69.52;98271.84;4998809;28;20037;-71
2021/06/20 06:30:05;;;;;;;14.45;12.48;;;;;;;22.59;69.20;98272.75;5004166;28;20033;-71
2021/06/20 06:32:30;;;;;;;15.95;12.32;;;;;;;22.64;68.85;98262.28;5014881;28;20095;-69
2021/06/20 06:34:56;;;;;;;12.30;11.00;;;;;;;22.56;69.21;98254.69;5019366;28;20474;-68
2021/06/20 06:37:21;;;;;;;14.57;11.98;;;;;;;22.67;69.12;98258.38;5037040;28;20030;-72
2021/06/20 06:39:46;;;;;;;15.50;12.35;;;;;;;22.71;68.93;98251.56;5022968;28;20029;-71
2021/06/20 06:42:12;;;;;;;14.43;11.25;;;;;;;22.75;67.74;98249.25;5020246;28;20041;-70
2021/06/20 06:44:37;;;;;;;13.60;10.85;;;;;;;22.78;67.70;98233.69;5019429;28;20026;-71
2021/06/20 06:47:03;;;;;;;16.60;11.63;;;;;;;22.82;67.41;98223.44;5023020;28;20148;-71
2021/06/20 06:49:28;;;;;;;13.93;11.52;;;;;;;22.61;66.81;98177.94;5018978;28;20132;-71
2021/06/20 06:51:54;;;;;;;13.38;10.88;;;;;;;22.88;66.41;98211.91;5022265;28;20021;-69
2021/06/20 06:54:19;;;;;;;14.52;12.00;;;;;;;22.81;66.95;98214.66;5022295;28;20491;-69
2021/06/20 06:56:46;;;;;;;14.20;11.35;;;;;;;22.79;66.45;98198.19;5037955;28;20116;-71
2021/06/20 06:59:12;;;;;;;15.45;11.35;;;;;;;22.56;66.67;98172.56;5036846;28;20030;-70
2021/06/20 07:01:39;;;;;;;13.05;11.68;;;;;;;22.74;66.70;98194.63;5020366;28;20360;-69
2021/06/20 07:04:04;;;;;;;13.77;12.35;;;;;;;22.77;67.05;98205.56;5019801;28;20029;-70
2021/06/20 07:06:29;;;;;;;15.73;11.40;;;;;;;22.66;67.20;98195.81;5009339;28;20518;-69
2021/06/20 07:08:55;;;;;;;12.90;11.13;;;;;;;22.78;67.34;98215.16;5015135;28;20029;-69
2021/06/20 07:11:21;;;;;;;14.38;11.52;;;;;;;22.90;66.79;98209.81;5021758;28;20108;-72
2021/06/20 07:13:47;;;;;;;15.60;12.27;;;;;;;22.84;67.04;98216.06;5019175;28;20022;-71
2021/06/20 07:16:12;;;;;;;14.13;12.10;;;;;;;22.87;67.34;98217.44;5023592;28;20126;-71
2021/06/20 07:18:38;;;;;;;13.30;11.85;;;;;;;22.89;67.35;98218.00;5019632;28;21168;-69
2021/06/20 07:21:04;;;;;;;16.77;11.98;;;;;;;22.93;67.64;98214.66;5007358;28;20029;-71
2021/06/20 07:23:29;;;;;;;13.98;11.73;;;;;;;22.99;67.37;98210.25;5015996;28;20106;-70
2021/06/20 07:25:54;;;;;;;17.58;11.68;;;;;;;23.01;67.80;98206.31;5024448;28;20195;-71
2021/06/20 07:28:20;;;;;;;14.73;11.32;;;;;;;22.87;67.07;98165.22;5024480;28;20087;-69
2021/06/20 07:30:49;;;;;;;13.55;11.32;;;;;;;23.11;67.08;98200.47;5018781;28;20034;-71
2021/06/20 07:33:15;;;;;;;13.43;11.63;;;;;;;23.16;66.95;98197.09;5005551;28;20103;-70
2021/06/20 07:35:41;;;;;;;13.75;11.35;;;;;;;23.23;67.09;98198.53;5022299;28;20025;-67
2021/06/20 07:38:06;;;;;;;15.95;11.95;;;;;;;23.26;66.12;98196.50;4998524;28;20504;-72
2021/06/20 07:40:32;;;;;;;12.88;11.00;;;;;;;23.18;65.77;98182.56;5006595;28;20475;-70
2021/06/20 07:42:57;;;;;;;15.02;11.25;;;;;;;23.22;65.47;98188.19;5022624;28;20087;-69
2021/06/20 07:45:23;;;;;;;14.40;11.52;;;;;;;23.14;65.72;98183.25;5003012;28;20493;-69
2021/06/20 07:47:48;;;;;;;14.73;11.32;;;;;;;23.27;65.62;98190.94;5013887;28;20041;-69
2021/06/20 07:50:14;;;;;;;15.95;11.23;;;;;;;23.31;65.24;98200.03;5024468;28;20045;-69
2021/06/20 07:52:40;;;;;;;15.52;11.25;;;;;;;23.32;64.80;98206.94;5026844;28;20109;-71
2021/06/20 07:55:06;;;;;;;16.30;11.57;;;;;;;23.52;63.98;98230.38;5002163;28;20171;-69
2021/06/20 07:57:32;;;;;;;15.00;11.40;;;;;;;23.45;63.23;98200.53;5019989;28;20025;-70
2021/06/20 07:59:58;;;;;;;14.00;11.18;;;;;;;23.72;62.71;98229.94;5021029;28;20092;-70
2021/06/20 08:02:23;;;;;;;15.60;11.45;;;;;;;23.82;62.35;98237.31;5018498;28;20661;-70
2021/06/20 08:04:49;;;;;;;13.77;11.55;;;;;;;23.90;62.73;98231.59;5017384;28;20068;-69
2021/06/20 08:07:14;;;;;;;12.90;11.02;;;;;;;23.99;62.09;98222.19;5039381;28;20627;-69
2021/06/20 08:09:40;;;;;;;16.15;11.85;;;;;;;24.13;61.24;98227.16;5019117;28;20614;-70
2021/06/20 08:12:08;;;;;;;15.25;11.63;;;;;;;24.26;60.77;98221.53;5003800;28;20033;-69
2021/06/20 08:14:33;;;;;;;13.25;11.07;;;;;;;24.21;61.45;98212.69;5020771;28;20627;-70
2021/06/20 08:16:59;;;;;;;14.07;10.73;;;;;;;24.17;61.90;98212.38;5037844;28;20182;-70
2021/06/20 08:19:24;;;;;;;14.13;11.02;;;;;;;24.24;62.15;98205.06;5030971;28;20034;-70
2021/06/20 08:21:50;;;;;;;13.02;11.35;;;;;;;24.30;61.45;98203.28;5020372;28;20021;-68
2021/06/20 08:24:17;;;;;;;13.77;11.00;;;;;;;24.22;60.89;98190.38;5032788;28;20465;-71
2021/06/20 08:26:45;;;;;;;19.52;11.55;;;;;;;24.29;61.35;98183.06;5019718;28;20028;-70
2021/06/20 08:29:10;;;;;;;14.40;12.13;;;;;;;24.29;61.50;98188.38;5036478;28;20076;-69
2021/06/20 08:31:36;;;;;;;14.75;10.65;;;;;;;24.08;61.03;98161.53;5008888;28;20124;-71
2021/06/20 08:34:01;;;;;;;17.25;11.20;;;;;;;24.31;61.16;98197.72;5017202;28;20033;-66
2021/06/20 08:36:27;;;;;;;16.15;11.85;;;;;;;24.67;60.45;98197.41;5038153;28;20559;-71
2021/06/20 08:38:54;;;;;;;16.23;11.68;;;;;;;24.73;59.01;98161.88;5013430;28;20626;-68
2021/06/20 08:41:21;;;;;;;13.50;11.18;;;;;;;25.08;57.99;98201.38;5017287;28;20033;-68
2021/06/20 08:43:47;;;;;;;12.35;10.90;;;;;;;25.26;57.86;98202.09;5018093;28;20075;-71
2021/06/20 08:46:12;;;;;;;13.80;11.00;;;;;;;25.23;56.65;98202.59;4997766;28;20038;-69
2021/06/20 08:48:38;;;;;;;15.50;10.57;;;;;;;25.16;57.24;98194.00;5014278;28;20683;-69
2021/06/20 08:51:05;;;;;;;13.48;10.88;;;;;;;24.91;58.45;98195.31;5031219;28;20033;-67
2021/06/20 08:53:31;;;;;;;14.35;11.18;;;;;;;24.52;59.62;98187.38;5013115;28;20028;-68
2021/06/20 08:55:57;;;;;;;17.30;11.93;;;;;;;24.31;60.27;98151.72;5017050;28;20036;-68
2021/06/20 08:58:32;;;;;;;13.68;11.32;;;;;;;24.68;59.84;98165.28;5013435;28;20924;-69
2021/06/20 09:00:58;;;;;;;13.70;10.80;;;;;;;24.94;58.55;98165.56;5007701;28;20021;-67
2021/06/20 09:03:24;;;;;;;14.52;11.40;;;;;;;25.10;58.31;98170.00;5014002;28;20063;-67
2021/06/20 09:06:01;;;;;;;13.88;10.77;;;;;;;25.49;57.33;98164.56;5016779;28;20037;-70
2021/06/20 09:08:28;;;;;;;12.05;10.82;;;;;;;26.16;55.17;98154.44;5031170;28;20025;-69
2021/06/20 09:10:55;;;;;;;14.55;10.60;;;;;;;26.21;54.29;98148.31;5007241;28;20107;-69
2021/06/20 09:13:21;;;;;;;12.27;10.70;;;;;;;25.88;54.96;98151.03;4991109;28;20033;-67
2021/06/20 09:15:57;;;;;;;15.63;11.00;;;;;;;25.96;54.06;98154.31;5020306;28;20021;-70
2021/06/20 09:18:23;;;;;;;12.73;10.43;;;;;;;26.03;53.65;98153.03;5034139;28;20017;-68
2021/06/20 09:20:49;;;;;;;13.68;10.23;;;;;;;26.04;54.03;98148.50;5019416;28;20029;-70
2021/06/20 09:23:16;;;;;;;11.98;10.05;;;;;;;26.44;53.42;98131.94;5035033;28;20084;-68
2021/06/20 09:25:44;;;;;;;13.90;10.95;;;;;;;26.56;53.13;98126.41;5023614;28;20024;-69
2021/06/20 09:28:11;;;;;;;15.95;9.82;;;;;;;26.55;52.61;98130.13;5012107;28;20076;-69
2021/06/20 09:30:45;;;;;;;12.60;10.48;;;;;;;27.08;51.12;98139.91;4998532;28;20026;-65
2021/06/20 09:33:10;;;;;;;12.20;9.55;;;;;;;27.36;50.30;98120.78;5019405;28;20400;-65
2021/06/20 09:35:52;;;;;;;15.82;11.30;;;;;;;26.85;52.05;98137.47;5019700;28;20061;-65
2021/06/20 09:38:22;;;;;;;16.25;10.13;;;;;;;26.84;51.43;98137.72;5032032;28;20033;-65
2021/06/20 09:40:51;;;;;;;13.23;10.95;;;;;;;26.34;52.68;98139.91;5019064;28;20025;-65
2021/06/20 09:43:19;;;;;;;15.40;10.65;;;;;;;26.03;53.76;98066.97;5020493;28;20646;-64
2021/06/20 09:45:47;;;;;;;16.40;10.48;;;;;;;26.54;51.94;98133.03;5029813;28;20049;-65
2021/06/20 09:48:32;;;;;;;14.65;10.43;;;;;;;26.58;51.33;98097.63;5038387;28;20060;-65
2021/06/20 09:51:00;;;;;;;13.73;10.23;;;;;;;26.79;51.27;98116.38;5024975;28;20033;-64
2021/06/20 09:53:37;;;;;;;13.73;10.05;;;;;;;27.03;50.19;98090.00;5014725;28;20499;-65
2021/06/20 09:56:14;;;;;;;16.55;9.80;;;;;;;27.56;49.27;98111.16;5016337;28;20164;-61
2021/06/20 09:58:44;;;;;;;14.38;9.10;;;;;;;27.30;48.52;98105.03;5015815;28;20037;-61
2021/06/20 10:01:11;;;;;;;12.73;9.45;;;;;;;27.08;50.92;98113.22;4998006;28;20072;-60
2021/06/20 10:03:37;;;;;;;13.77;9.98;;;;;;;26.74;50.81;98095.00;5019428;28;20472;-61
2021/06/20 10:06:03;;;;;;;11.48;10.13;;;;;;;26.90;52.16;98114.53;5030081;28;20036;-61
2021/06/20 10:08:34;;;;;;;14.43;9.45;;;;;;;26.43;52.36;98081.53;5013087;28;20042;-60
2021/06/20 10:11:00;;;;;;;12.40;9.85;;;;;;;26.31;54.11;98104.97;5016678;28;20033;-61
2021/06/20 10:13:25;;;;;;;11.52;10.32;;;;;;;26.18;53.31;98116.91;5015816;28;20335;-60
2021/06/20 10:15:51;;;;;;;14.15;10.07;;;;;;;26.20;52.64;98102.25;5015698;28;20033;-60
2021/06/20 10:18:17;;;;;;;13.60;10.32;;;;;;;26.28;53.91;98101.75;5005381;28;20038;-60
2021/06/20 10:20:43;;;;;;;14.60;10.65;;;;;;;26.50;53.75;98095.44;4993995;28;20034;-60
2021/06/20 10:23:19;;;;;;;14.63;9.70;;;;;;;26.58;51.04;98100.28;5032645;28;20045;-61
2021/06/20 10:25:45;;;;;;;12.20;9.48;;;;;;;26.74;51.08;98089.69;5025678;28;20082;-61
2021/06/20 10:28:15;;;;;;;15.50;9.60;;;;;;;27.17;48.99;98099.09;5021196;28;20037;-61
2021/06/20 10:30:45;;;;;;;18.60;8.45;;;;;;;27.36;47.31;98101.28;4998503;28;20025;-61
2021/06/20 10:33:22;;;;;;;15.45;8.05;;;;;;;27.49;44.95;98095.41;5017241;28;20490;-60
2021/06/20 10:36:02;;;;;;;14.48;6.68;;;;;;;27.76;44.45;98100.47;5017759;28;20021;-60
2021/06/20 10:38:38;;;;;;;18.00;7.22;;;;;;;27.72;43.70;98091.38;5023790;28;20041;-60
2021/06/20 10:41:04;;;;;;;13.75;6.57;;;;;;;27.88;43.02;98110.84;5022576;28;20037;-61
2021/06/20 10:43:30;;;;;;;17.05;6.65;;;;;;;27.83;42.75;98070.78;5012770;28;20115;-60
2021/06/20 10:45:55;;;;;;;15.93;5.80;;;;;;;28.00;42.07;98102.56;5043439;28;20507;-60
2021/06/20 10:48:28;;;;;;;14.77;6.13;;;;;;;27.91;42.47;98078.31;5023860;28;20033;-59
2021/06/20 10:50:58;;;;;;;17.40;5.68;;;;;;;28.10;42.27;98105.22;5018870;28;20288;-59
2021/06/20 10:53:25;;;;;;;17.85;5.90;;;;;;;28.11;41.94;98101.50;5021976;28;20037;-60
2021/06/20 10:55:59;;;;;;;18.38;6.20;;;;;;;28.05;42.17;98088.41;5025250;28;20025;-61
2021/06/20 10:58:27;;;;;;;16.80;6.47;;;;;;;28.23;42.59;98095.03;5023168;28;20029;-62
2021/06/20 11:01:06;;;;;;;17.95;6.28;;;;;;;28.37;42.42;98077.34;4996111;28;20717;-60
2021/06/20 11:03:31;;;;;;;16.92;6.22;;;;;;;28.36;41.90;98060.50;5001686;28;20109;-58
2021/06/20 11:06:09;;;;;;;16.80;6.18;;;;;;;28.38;41.50;98057.56;5022340;28;20492;-60
2021/06/20 11:08:36;;;;;;;17.15;6.05;;;;;;;28.33;42.41;98058.38;5016349;28;20045;-60
2021/06/20 11:11:23;;;;;;;16.83;6.55;;;;;;;28.46;42.24;98051.66;5018545;28;20021;-59
2021/06/20 11:13:55;;;;;;;19.98;6.20;;;;;;;28.59;42.24;98036.09;5013220;28;20025;-59
2021/06/20 11:16:27;;;;;;;14.55;5.82;;;;;;;28.30;41.11;97977.94;5017224;28;20037;-61
2021/06/20 11:19:25;;;;;;;24.65;6.50;;;;;;;28.67;41.11;98019.47;5038521;28;21245;-60